Time;durP1;ratioP1;P1;durP2;ratioP2;P2;SDS_P1;SDS_P2;PMS_P1;PMS_P2;Temp;Humidity;BMP_temperature;BMP_pressure;BME280_temperature;BME280_humidity;BME280_pressure;Samples;Min_cycle;Max_cycle;Signal;HPM_P1;HPM_P2
2021/11/25 00:00:10;;;;;;;6.97;3.60;;;6.90;99.90;;;;;;5032481;28;20189;-69
2021/11/25 00:02:37;;;;;;;7.63;5.53;;;6.90;99.90;;;;;;5032529;28;20169;-68
2021/11/25 00:05:04;;;;;;;7.40;4.53;;;6.90;99.90;;;;;;5031749;28;20410;-67
2021/11/25 00:07:30;;;;;;;9.17;4.50;;;6.90;99.90;;;;;;5032243;28;20414;-68
2021/11/25 00:09:55;;;;;;;4.37;3.17;;;6.90;99.90;;;;;;5032405;28;20438;-68
2021/11/25 00:12:21;;;;;;;4.73;3.70;;;6.90;99.90;;;;;;5032299;28;20230;-68
2021/11/25 00:14:46;;;;;;;5.27;2.87;;;6.90;99.90;;;;;;5032265;28;20192;-68
2021/11/25 00:17:12;;;;;;;4.80;3.10;;;6.90;99.90;;;;;;5032258;28;20588;-67
2021/11/25 00:19:38;;;;;;;4.20;3.40;;;6.80;99.90;;;;;;5032115;28;20216;-68
2021/11/25 00:22:03;;;;;;;4.83;3.73;;;6.80;99.90;;;;;;5031867;28;20605;-70
2021/11/25 00:24:32;;;;;;;4.33;3.60;;;6.80;99.90;;;;;;5032125;28;20734;-71
2021/11/25 00:26:58;;;;;;;6.73;3.20;;;6.80;99.90;;;;;;5032234;28;20661;-68
2021/11/25 00:29:24;;;;;;;5.67;5.10;;;6.80;99.90;;;;;;5031944;28;20411;-67
2021/11/25 00:31:49;;;;;;;6.60;2.37;;;6.80;99.90;;;;;;5031964;28;20391;-68
2021/11/25 00:34:15;;;;;;;3.23;2.50;;;6.80;99.90;;;;;;5031764;28;20180;-67
2021/11/25 00:36:41;;;;;;;4.13;2.83;;;6.80;99.90;;;;;;5032316;28;20211;-67
2021/11/25 00:39:08;;;;;;;4.93;3.20;;;6.70;99.90;;;;;;5031756;28;20421;-67
2021/11/25 00:41:36;;;;;;;4.23;2.77;;;6.70;99.90;;;;;;5031759;28;20192;-67
2021/11/25 00:44:05;;;;;;;4.30;3.37;;;6.70;99.90;;;;;;5025657;28;20431;-68
2021/11/25 00:46:30;;;;;;;3.00;2.80;;;6.70;99.90;;;;;;5028620;28;20450;-67
2021/11/25 00:48:56;;;;;;;2.40;1.67;;;6.70;99.90;;;;;;5012322;28;20513;-68
2021/11/25 00:51:22;;;;;;;3.80;2.90;;;6.70;99.90;;;;;;5012837;28;20202;-67
2021/11/25 00:53:48;;;;;;;4.27;3.00;;;6.70;99.90;;;;;;5011368;28;20168;-68
2021/11/25 00:56:13;;;;;;;2.30;2.10;;;6.70;99.90;;;;;;5012165;28;20486;-67
2021/11/25 00:58:39;;;;;;;2.37;2.10;;;6.70;99.90;;;;;;5012029;28;20164;-67
2021/11/25 01:01:05;;;;;;;4.43;2.93;;;6.70;99.90;;;;;;5012867;28;20195;-68
2021/11/25 01:03:30;;;;;;;4.20;2.50;;;6.70;99.90;;;;;;5008800;28;20567;-68
2021/11/25 01:05:59;;;;;;;2.60;2.13;;;6.60;99.90;;;;;;5031673;28;20692;-68
2021/11/25 01:08:25;;;;;;;2.90;2.17;;;6.60;99.90;;;;;;5031765;28;20176;-68
2021/11/25 01:10:50;;;;;;;2.60;2.40;;;6.60;99.90;;;;;;5030408;28;20803;-67
2021/11/25 01:13:16;;;;;;;3.27;2.20;;;6.60;99.90;;;;;;5031026;28;20512;-67
2021/11/25 01:15:42;;;;;;;3.07;2.67;;;6.60;99.90;;;;;;5031373;28;20195;-67
2021/11/25 01:18:11;;;;;;;2.23;2.00;;;6.60;99.90;;;;;;5030220;28;20187;-67
2021/11/25 01:20:38;;;;;;;2.40;2.20;;;6.60;99.90;;;;;;5031423;28;20184;-68
2021/11/25 01:23:08;;;;;;;5.00;2.80;;;6.60;99.90;;;;;;5031488;28;20437;-67
2021/11/25 01:25:34;;;;;;;2.43;1.80;;;6.50;99.90;;;;;;5031372;28;20460;-68
2021/11/25 01:28:00;;;;;;;3.60;2.07;;;6.50;99.90;;;;;;5029755;28;20410;-68
2021/11/25 01:30:26;;;;;;;3.97;2.87;;;6.50;99.90;;;;;;5030998;28;20790;-67
2021/11/25 01:32:52;;;;;;;2.17;1.97;;;6.50;99.90;;;;;;5030862;28;20574;-68
2021/11/25 01:35:18;;;;;;;3.10;2.73;;;6.60;99.90;;;;;;5030493;28;20682;-67
2021/11/25 01:37:44;;;;;;;2.53;2.13;;;6.60;99.90;;;;;;5030966;28;20391;-68
2021/11/25 01:40:13;;;;;;;2.33;2.13;;;6.50;99.90;;;;;;5030761;28;20188;-69
2021/11/25 01:42:40;;;;;;;2.60;2.37;;;6.60;99.90;;;;;;5030918;28;20246;-68
2021/11/25 01:45:07;;;;;;;3.97;2.40;;;6.50;99.90;;;;;;5030705;28;20414;-68
2021/11/25 01:47:33;;;;;;;3.83;2.83;;;6.50;99.90;;;;;;5031174;28;20424;-67
2021/11/25 01:49:59;;;;;;;3.10;2.80;;;6.60;99.90;;;;;;5031076;28;20418;-67
2021/11/25 01:52:24;;;;;;;2.90;2.10;;;6.60;99.90;;;;;;5030683;28;20410;-67
2021/11/25 01:54:50;;;;;;;3.70;2.90;;;6.60;99.90;;;;;;5030568;28;20199;-68
2021/11/25 01:57:16;;;;;;;2.67;2.40;;;6.60;99.90;;;;;;5025880;28;20168;-69
2021/11/25 01:59:42;;;;;;;2.40;2.20;;;6.50;99.90;;;;;;5010843;28;20494;-70
2021/11/25 02:02:10;;;;;;;3.63;2.37;;;6.50;99.90;;;;;;5011225;28;20255;-67
2021/11/25 02:04:35;;;;;;;2.07;1.90;;;6.50;99.90;;;;;;5012298;28;20160;-68
2021/11/25 02:07:01;;;;;;;3.80;2.17;;;6.50;99.90;;;;;;5014677;28;20794;-68
2021/11/25 02:09:27;;;;;;;2.40;2.17;;;6.50;99.90;;;;;;5013230;28;20658;-68
2021/11/25 02:11:53;;;;;;;2.30;2.10;;;6.40;99.90;;;;;;5014518;28;20169;-68
2021/11/25 02:14:21;;;;;;;5.90;2.97;;;6.50;99.90;;;;;;5031673;28;20229;-69
2021/11/25 02:16:49;;;;;;;1.57;1.47;;;6.40;99.90;;;;;;5033889;28;21103;-69
2021/11/25 02:19:16;;;;;;;2.00;1.60;;;6.50;99.90;;;;;;5033845;28;20422;-68
2021/11/25 02:21:41;;;;;;;2.43;2.20;;;6.50;99.90;;;;;;5030534;28;20513;-68
2021/11/25 02:24:07;;;;;;;3.40;2.00;;;6.40;99.90;;;;;;5034054;28;20497;-68
2021/11/25 02:26:33;;;;;;;3.17;2.73;;;6.40;99.90;;;;;;5033898;28;20603;-69
2021/11/25 02:28:58;;;;;;;4.17;3.40;;;6.40;99.90;;;;;;5033828;28;20172;-67
2021/11/25 02:31:24;;;;;;;4.70;2.27;;;6.30;99.90;;;;;;5033768;28;20203;-67
2021/11/25 02:33:49;;;;;;;3.40;2.90;;;6.30;99.90;;;;;;5033866;28;20172;-68
2021/11/25 02:36:15;;;;;;;8.93;3.43;;;6.30;99.90;;;;;;5033738;28;20199;-68
2021/11/25 02:38:41;;;;;;;7.33;3.30;;;6.30;99.90;;;;;;5033819;28;20245;-67
2021/11/25 02:41:07;;;;;;;4.93;3.53;;;6.30;99.90;;;;;;5033543;28;20295;-67
2021/11/25 02:43:35;;;;;;;3.43;3.13;;;6.20;99.90;;;;;;5032326;28;20502;-67
2021/11/25 02:46:07;;;;;;;5.63;3.40;;;6.20;99.90;;;;;;5033771;28;20168;-68
2021/11/25 02:48:38;;;;;;;6.30;3.90;;;6.20;99.90;;;;;;5033679;28;20450;-67
2021/11/25 02:51:04;;;;;;;6.77;4.80;;;6.20;99.90;;;;;;5033648;28;20600;-67
2021/11/25 02:53:32;;;;;;;7.30;4.23;;;6.20;99.90;;;;;;5033346;28;20403;-69
2021/11/25 02:56:01;;;;;;;5.03;3.80;;;6.20;99.90;;;;;;5033572;28;20446;-68
2021/11/25 02:58:27;;;;;;;7.17;4.03;;;6.20;99.90;;;;;;5033330;28;20452;-67
2021/11/25 03:00:57;;;;;;;5.87;4.27;;;6.10;99.90;;;;;;5033312;28;20441;-66
2021/11/25 03:03:22;;;;;;;4.40;3.53;;;6.10;99.90;;;;;;5033220;28;20406;-69
2021/11/25 03:05:50;;;;;;;7.63;4.73;;;6.10;99.90;;;;;;5033197;28;20493;-67
2021/11/25 03:08:17;;;;;;;6.23;4.73;;;6.10;99.90;;;;;;5033262;28;20266;-66
2021/11/25 03:11:07;;;;;;;8.10;4.83;;;6.10;99.90;;;;;;5033047;28;20484;-67
2021/11/25 03:16:10;;;;;;;8.20;4.33;;;6.10;99.90;;;;;;5582931;22;20664;-68
2021/11/25 03:18:37;;;;;;;9.17;5.40;;;6.00;99.90;;;;;;5030444;28;20457;-68
2021/11/25 03:21:03;;;;;;;5.47;4.73;;;6.00;99.90;;;;;;5032992;28;20436;-68
2021/11/25 03:23:32;;;;;;;8.10;5.60;;;6.00;99.90;;;;;;5033068;28;20402;-68
2021/11/25 03:25:59;;;;;;;5.97;4.60;;;5.90;99.90;;;;;;5032895;28;20789;-69
2021/11/25 03:28:26;;;;;;;7.30;6.40;;;6.00;99.90;;;;;;5032836;28;20691;-68
2021/11/25 03:30:55;;;;;;;8.83;6.07;;;5.90;99.90;;;;;;5032428;28;20498;-68
2021/11/25 03:33:24;;;;;;;8.20;4.70;;;5.90;99.90;;;;;;5032688;28;20930;-68
2021/11/25 03:35:50;;;;;;;8.77;5.57;;;5.90;99.90;;;;;;5032336;28;20484;-70
2021/11/25 03:38:16;;;;;;;6.63;5.77;;;5.90;99.90;;;;;;5032750;28;20395;-68
2021/11/25 03:40:42;;;;;;;9.67;6.43;;;5.90;99.90;;;;;;5032349;28;20912;-68
2021/11/25 03:43:08;;;;;;;6.63;5.50;;;5.90;99.90;;;;;;5032272;28;20498;-70
2021/11/25 03:45:34;;;;;;;7.77;6.27;;;5.90;99.90;;;;;;5031836;28;20449;-70
2021/11/25 03:48:00;;;;;;;8.10;5.40;;;5.90;99.90;;;;;;5032222;28;20406;-69
2021/11/25 03:50:26;;;;;;;10.70;7.30;;;5.80;99.90;;;;;;5032502;28;20408;-68
2021/11/25 03:53:00;;;;;;;10.27;7.63;;;5.70;99.90;;;;;;5032470;28;20342;-69
2021/11/25 03:55:27;;;;;;;9.57;5.97;;;5.80;99.90;;;;;;5030696;28;20215;-69
2021/11/25 03:57:53;;;;;;;8.00;5.60;;;5.80;99.90;;;;;;5032700;28;20403;-70
2021/11/25 04:00:24;;;;;;;6.53;5.20;;;5.80;99.90;;;;;;5032318;28;20748;-69
2021/11/25 04:02:51;;;;;;;7.43;5.03;;;5.70;99.90;;;;;;5031112;28;20545;-69
2021/11/25 04:05:18;;;;;;;12.53;7.13;;;5.70;99.90;;;;;;5030472;28;20437;-69
2021/11/25 04:07:44;;;;;;;7.47;6.27;;;5.70;99.90;;;;;;5032029;28;20489;-69
2021/11/25 04:10:12;;;;;;;6.23;5.03;;;5.70;99.90;;;;;;5032691;28;20494;-69
2021/11/25 04:12:37;;;;;;;9.73;5.60;;;5.70;99.90;;;;;;5030855;28;20476;-69
2021/11/25 04:15:10;;;;;;;6.43;5.60;;;5.70;99.90;;;;;;5031933;28;20449;-69
2021/11/25 04:17:38;;;;;;;11.90;5.47;;;5.70;99.90;;;;;;5032122;28;20186;-69
2021/11/25 04:20:08;;;;;;;9.00;6.47;;;5.60;99.90;;;;;;5032258;28;20406;-69
2021/11/25 04:22:33;;;;;;;6.93;5.70;;;5.60;99.90;;;;;;5031878;28;20407;-69
2021/11/25 04:24:59;;;;;;;8.10;6.23;;;5.60;99.90;;;;;;5031667;28;20751;-69
2021/11/25 04:27:28;;;;;;;9.80;6.07;;;5.60;99.90;;;;;;5030878;28;20218;-69
2021/11/25 04:37:52;;;;;;;10.17;5.97;;;5.60;99.90;;;;;;5032001;28;20839;-70
2021/11/25 04:40:18;;;;;;;7.27;6.40;;;5.50;99.90;;;;;;5031965;28;20430;-70
2021/11/25 04:42:43;;;;;;;9.60;6.33;;;5.50;99.90;;;;;;5032038;28;20422;-70
2021/11/25 04:45:09;;;;;;;11.83;7.80;;;5.50;99.90;;;;;;5032158;28;20429;-71
2021/11/25 04:47:36;;;;;;;11.13;6.70;;;5.50;99.90;;;;;;5032181;28;20233;-69
2021/11/25 04:50:02;;;;;;;8.57;6.13;;;5.40;99.90;;;;;;5032059;28;20171;-70
2021/11/25 04:52:28;;;;;;;11.63;7.87;;;5.40;99.90;;;;;;5031800;28;20411;-69
2021/11/25 04:54:53;;;;;;;13.40;7.57;;;5.40;99.90;;;;;;5031070;28;20406;-69
2021/11/25 04:57:19;;;;;;;10.50;6.27;;;5.40;99.90;;;;;;5031365;28;20191;-69
2021/11/25 04:59:44;;;;;;;13.07;7.83;;;5.40;99.90;;;;;;5031204;28;20697;-68
2021/11/25 05:02:10;;;;;;;11.97;5.77;;;5.40;99.90;;;;;;5031509;28;20160;-69
2021/11/25 05:04:35;;;;;;;13.87;8.90;;;5.40;99.90;;;;;;5031276;28;20175;-68
2021/11/25 05:07:01;;;;;;;11.30;8.40;;;5.40;99.90;;;;;;5031425;28;20184;-68
2021/11/25 05:09:27;;;;;;;9.87;7.43;;;5.40;99.90;;;;;;5030998;28;20196;-68
2021/11/25 05:11:52;;;;;;;10.50;7.67;;;5.40;99.90;;;;;;5031657;28;20171;-69
2021/11/25 05:14:18;;;;;;;10.80;9.03;;;5.40;99.90;;;;;;5031187;28;20229;-69
2021/11/25 05:16:44;;;;;;;9.97;7.10;;;5.40;99.90;;;;;;5030975;28;20207;-68
2021/11/25 05:19:11;;;;;;;13.30;8.07;;;5.40;99.90;;;;;;5031346;28;20280;-67
2021/11/25 05:21:37;;;;;;;10.53;6.37;;;5.40;99.90;;;;;;5031227;28;20398;-68
2021/11/25 05:24:02;;;;;;;12.97;7.77;;;5.40;99.90;;;;;;5030969;28;20946;-69
2021/11/25 05:26:28;;;;;;;10.20;7.73;;;5.40;99.90;;;;;;5030654;28;20429;-68
2021/11/25 05:28:54;;;;;;;14.93;9.07;;;5.40;99.90;;;;;;5030811;28;20555;-68
2021/11/25 05:31:22;;;;;;;15.63;9.10;;;5.30;99.90;;;;;;5030730;28;20418;-69
2021/11/25 05:33:48;;;;;;;11.77;8.20;;;5.30;99.90;;;;;;5029469;28;20255;-68
2021/11/25 05:36:14;;;;;;;13.97;9.83;;;5.30;99.90;;;;;;5030609;28;20859;-69
2021/11/25 05:38:39;;;;;;;13.27;8.63;;;5.30;99.90;;;;;;5030711;28;20795;-67
2021/11/25 05:41:05;;;;;;;13.20;8.90;;;5.30;99.90;;;;;;5034539;28;20171;-70
2021/11/25 05:43:30;;;;;;;10.60;7.10;;;5.40;99.90;;;;;;5035062;28;20175;-68
2021/11/25 05:45:56;;;;;;;13.93;7.70;;;5.40;99.90;;;;;;5032981;28;20195;-68
2021/11/25 05:48:23;;;;;;;12.03;8.03;;;5.30;99.90;;;;;;5034428;28;20258;-69
2021/11/25 05:50:50;;;;;;;14.60;8.87;;;5.30;99.90;;;;;;5034498;28;20172;-69
2021/11/25 05:53:18;;;;;;;12.10;8.67;;;5.30;99.90;;;;;;5034415;28;20449;-70
2021/11/25 05:55:44;;;;;;;15.77;7.10;;;5.30;99.90;;;;;;5034063;28;20458;-69
2021/11/25 05:58:10;;;;;;;15.83;9.80;;;5.30;99.90;;;;;;5034361;28;20767;-70
2021/11/25 06:00:36;;;;;;;14.67;8.23;;;5.20;99.90;;;;;;5034267;28;20414;-69
2021/11/25 06:03:02;;;;;;;13.47;8.00;;;5.30;99.90;;;;;;5034058;28;20421;-71
2021/11/25 06:05:27;;;;;;;10.90;6.77;;;5.20;99.90;;;;;;5033977;28;20666;-71
2021/11/25 06:07:54;;;;;;;14.10;9.03;;;5.20;99.90;;;;;;5034166;28;20729;-70
2021/11/25 06:10:21;;;;;;;10.17;7.47;;;5.10;99.90;;;;;;5034024;28;20201;-69
2021/11/25 06:12:48;;;;;;;11.63;8.23;;;5.10;99.90;;;;;;5033936;28;20402;-69
2021/11/25 06:15:14;;;;;;;19.80;9.87;;;5.20;99.90;;;;;;5033714;28;20558;-68
2021/11/25 06:17:40;;;;;;;14.77;10.67;;;5.20;99.90;;;;;;5033877;28;20398;-68
2021/11/25 06:20:13;;;;;;;14.87;9.27;;;5.20;99.90;;;;;;5033742;28;20464;-68
2021/11/25 06:22:44;;;;;;;16.27;7.70;;;5.20;99.90;;;;;;5033860;28;20221;-68
2021/11/25 06:25:11;;;;;;;11.50;7.90;;;5.10;99.90;;;;;;5033852;28;20410;-69
2021/11/25 06:27:38;;;;;;;9.10;7.60;;;5.20;99.90;;;;;;5034040;28;20410;-69
2021/11/25 06:30:05;;;;;;;17.20;8.60;;;5.20;99.90;;;;;;5033622;28;20445;-69
2021/11/25 06:32:31;;;;;;;12.20;7.13;;;5.20;99.90;;;;;;5034022;28;20414;-69
2021/11/25 06:34:57;;;;;;;11.50;7.50;;;5.20;99.90;;;;;;5033118;28;20414;-69
2021/11/25 06:37:22;;;;;;;15.40;9.00;;;5.30;99.90;;;;;;5033671;28;20394;-70
2021/11/25 06:39:48;;;;;;;14.80;9.47;;;5.20;99.90;;;;;;5034009;28;20174;-68
2021/11/25 06:42:14;;;;;;;13.43;8.87;;;5.20;99.90;;;;;;5033340;28;20191;-69
2021/11/25 06:44:40;;;;;;;16.00;10.97;;;5.20;99.90;;;;;;5033178;28;20215;-69
2021/11/25 06:47:06;;;;;;;11.53;8.93;;;5.20;99.90;;;;;;5033008;28;20576;-69
2021/11/25 06:49:31;;;;;;;12.53;9.70;;;5.20;99.90;;;;;;5033257;28;20160;-70
2021/11/25 06:51:57;;;;;;;11.07;7.50;;;5.20;99.90;;;;;;5032298;28;20206;-70
2021/11/25 06:54:23;;;;;;;12.93;8.60;;;5.20;99.90;;;;;;5033462;28;20168;-70
2021/11/25 06:56:48;;;;;;;15.63;9.60;;;5.20;99.90;;;;;;5033337;28;20239;-69
2021/11/25 06:59:15;;;;;;;19.90;9.30;;;5.30;99.90;;;;;;5033375;28;20250;-70
2021/11/25 07:01:40;;;;;;;9.37;6.07;;;5.30;99.90;;;;;;5032093;28;20179;-69
2021/11/25 07:04:06;;;;;;;15.07;9.93;;;5.20;99.90;;;;;;5033591;28;20447;-70
2021/11/25 07:06:34;;;;;;;14.20;10.03;;;5.20;99.90;;;;;;5032891;28;20196;-69
2021/11/25 07:09:00;;;;;;;19.30;8.83;;;5.20;99.90;;;;;;5033115;28;20263;-69
2021/11/25 07:11:27;;;;;;;12.37;7.43;;;5.20;99.90;;;;;;5032864;28;20422;-70
2021/11/25 07:13:53;;;;;;;17.27;11.57;;;5.20;99.90;;;;;;5033081;28;20414;-68
2021/11/25 07:16:19;;;;;;;12.50;8.83;;;5.20;99.90;;;;;;5032633;28;21030;-68
2021/11/25 07:18:44;;;;;;;11.70;7.37;;;5.20;99.90;;;;;;5032738;28;20183;-68
2021/11/25 07:21:10;;;;;;;11.57;8.67;;;5.20;99.90;;;;;;5032951;28;20179;-69
2021/11/25 07:23:35;;;;;;;12.90;7.77;;;5.20;99.90;;;;;;5032954;28;20496;-69
2021/11/25 07:26:03;;;;;;;13.87;9.60;;;5.20;99.90;;;;;;5032585;28;20322;-68
2021/11/25 07:28:29;;;;;;;12.07;8.60;;;5.10;99.90;;;;;;5033347;28;20179;-69
2021/11/25 07:30:55;;;;;;;11.20;7.10;;;5.20;99.90;;;;;;5032740;28;20402;-69
2021/11/25 07:33:21;;;;;;;15.90;7.17;;;5.30;99.90;;;;;;5033163;28;20172;-69
2021/11/25 07:35:46;;;;;;;14.50;8.33;;;5.30;99.90;;;;;;5032622;28;20468;-71
2021/11/25 07:38:13;;;;;;;14.70;8.10;;;5.30;99.90;;;;;;5032845;28;20175;-72
2021/11/25 07:40:39;;;;;;;12.57;8.13;;;5.30;99.90;;;;;;5032599;28;20717;-70
2021/11/25 07:43:06;;;;;;;16.90;8.50;;;5.40;99.90;;;;;;5033459;28;20456;-68
2021/11/25 07:45:33;;;;;;;16.93;10.27;;;5.20;99.90;;;;;;5032623;28;20430;-67
2021/11/25 07:47:58;;;;;;;11.67;9.13;;;5.20;99.90;;;;;;5032600;28;20406;-69
2021/11/25 07:50:26;;;;;;;16.00;8.00;;;5.30;99.90;;;;;;5032403;28;20410;-68
2021/11/25 07:52:53;;;;;;;13.40;8.77;;;5.30;99.90;;;;;;5032299;28;20183;-68
2021/11/25 07:55:19;;;;;;;14.20;8.30;;;5.30;99.90;;;;;;5032112;28;20469;-68
2021/11/25 07:57:46;;;;;;;13.23;7.67;;;5.20;99.90;;;;;;5030961;28;20453;-71
2021/11/25 08:00:14;;;;;;;14.03;8.90;;;5.20;99.90;;;;;;5032856;28;20405;-69
2021/11/25 08:02:41;;;;;;;11.83;7.63;;;5.30;99.90;;;;;;5032212;28;20460;-70
2021/11/25 08:05:07;;;;;;;9.50;7.87;;;5.50;99.90;;;;;;5032077;28;20414;-70
2021/11/25 08:07:33;;;;;;;13.50;8.90;;;5.70;99.90;;;;;;5032685;28;20410;-68
2021/11/25 08:09:58;;;;;;;17.90;9.40;;;5.90;99.90;;;;;;5032109;28;20426;-69
2021/11/25 08:12:24;;;;;;;17.43;10.27;;;5.90;99.90;;;;;;5032267;28;20254;-69
2021/11/25 08:14:50;;;;;;;12.13;8.53;;;5.70;99.90;;;;;;5032039;28;20180;-69
2021/11/25 08:17:20;;;;;;;10.90;7.23;;;5.90;99.90;;;;;;5032185;28;20207;-70
2021/11/25 08:19:50;;;;;;;9.53;7.93;;;5.70;99.90;;;;;;5015372;28;20187;-69
2021/11/25 08:22:29;;;;;;;9.23;7.43;;;5.70;99.90;;;;;;5032852;28;20765;-69
2021/11/25 08:24:55;;;;;;;6.70;5.63;;;5.80;99.90;;;;;;5031045;28;20417;-68
2021/11/25 08:27:21;;;;;;;8.47;7.63;;;5.60;99.90;;;;;;5031928;28;20398;-69
2021/11/25 08:29:47;;;;;;;13.13;9.20;;;5.70;99.90;;;;;;5031931;28;20645;-69
2021/11/25 08:32:12;;;;;;;10.07;6.80;;;5.50;99.90;;;;;;5031020;28;20410;-70
2021/11/25 08:34:39;;;;;;;13.57;8.90;;;5.50;99.90;;;;;;5030795;28;20175;-70
2021/11/25 08:37:05;;;;;;;13.90;8.73;;;5.40;99.90;;;;;;5030665;28;20562;-69
2021/11/25 08:39:33;;;;;;;14.03;7.80;;;5.70;99.90;;;;;;5030832;28;20403;-70
2021/11/25 08:41:59;;;;;;;13.47;7.77;;;5.80;99.90;;;;;;5030745;28;20646;-70
2021/11/25 08:44:24;;;;;;;14.50;7.73;;;5.70;99.90;;;;;;5030993;28;20417;-69
2021/11/25 08:46:50;;;;;;;16.00;7.00;;;5.70;99.90;;;;;;5030882;28;20191;-69
2021/11/25 08:49:16;;;;;;;10.47;8.60;;;5.80;99.90;;;;;;5031309;28;20172;-69
2021/11/25 08:51:42;;;;;;;13.10;7.50;;;5.80;99.90;;;;;;5031814;28;20405;-69
2021/11/25 08:54:08;;;;;;;14.53;8.17;;;5.90;99.90;;;;;;5028739;28;20246;-69
2021/11/25 08:56:33;;;;;;;14.83;7.77;;;5.80;99.90;;;;;;5019177;28;20284;-69
2021/11/25 08:58:59;;;;;;;13.77;8.80;;;5.80;99.90;;;;;;5031671;28;20513;-70
2021/11/25 09:01:25;;;;;;;14.80;9.40;;;6.00;99.90;;;;;;5031777;28;20171;-70
2021/11/25 09:03:52;;;;;;;10.47;7.33;;;5.70;99.90;;;;;;5031947;28;20167;-69
2021/11/25 09:06:18;;;;;;;9.40;6.20;;;5.70;99.90;;;;;;5031621;28;20430;-70
2021/11/25 09:08:43;;;;;;;16.53;8.87;;;5.70;99.90;;;;;;5032053;28;20975;-70
2021/11/25 09:11:10;;;;;;;13.47;7.87;;;5.70;99.90;;;;;;5031680;28;20418;-70
2021/11/25 09:13:36;;;;;;;13.80;7.90;;;5.60;99.90;;;;;;5030253;28;20180;-69
2021/11/25 09:16:02;;;;;;;12.73;7.77;;;5.90;99.90;;;;;;5035447;28;20545;-69
2021/11/25 09:18:27;;;;;;;18.67;7.83;;;5.90;99.90;;;;;;5035392;28;20183;-70
2021/11/25 09:20:53;;;;;;;13.50;7.50;;;5.90;99.90;;;;;;5035463;28;20410;-69
2021/11/25 09:23:20;;;;;;;15.37;8.80;;;5.80;99.90;;;;;;5035379;28;20163;-69
2021/11/25 09:25:46;;;;;;;11.43;9.90;;;6.00;99.90;;;;;;5035462;28;20206;-70
2021/11/25 09:28:19;;;;;;;11.33;8.23;;;6.00;99.90;;;;;;5035199;28;21063;-70
2021/11/25 09:30:45;;;;;;;13.77;8.13;;;6.10;99.90;;;;;;5035527;28;20406;-69
2021/11/25 09:33:11;;;;;;;12.40;9.43;;;5.90;99.90;;;;;;5035345;28;20407;-69
2021/11/25 09:35:39;;;;;;;12.70;8.73;;;5.60;99.90;;;;;;5035053;28;20457;-69
2021/11/25 09:38:06;;;;;;;13.17;8.70;;;5.60;99.90;;;;;;5035300;28;20429;-69
2021/11/25 09:40:33;;;;;;;12.20;7.20;;;5.90;99.90;;;;;;5035283;28;20460;-69
2021/11/25 09:43:04;;;;;;;11.47;7.47;;;5.80;99.90;;;;;;5033884;28;20979;-70
2021/11/25 09:45:32;;;;;;;11.10;7.00;;;5.70;99.90;;;;;;5034979;28;20430;-71
2021/11/25 09:48:09;;;;;;;10.30;8.20;;;6.20;99.90;;;;;;5034753;28;20899;-70
2021/11/25 09:50:38;;;;;;;8.27;6.77;;;6.30;99.90;;;;;;5034949;28;20398;-69
2021/11/25 09:53:08;;;;;;;10.87;8.00;;;6.00;99.90;;;;;;5035017;28;20776;-71
2021/11/25 09:55:36;;;;;;;16.37;10.10;;;5.90;99.90;;;;;;5034890;28;20462;-69
2021/11/25 09:58:03;;;;;;;14.20;8.57;;;6.00;99.90;;;;;;5033545;28;20978;-70
2021/11/25 10:00:31;;;;;;;11.73;7.77;;;5.90;99.90;;;;;;5034452;28;20489;-70
2021/11/25 10:02:57;;;;;;;14.20;8.03;;;5.70;99.90;;;;;;5034376;28;20426;-70
2021/11/25 10:05:23;;;;;;;10.60;7.47;;;5.90;99.90;;;;;;5016610;28;20886;-73
2021/11/25 10:07:49;;;;;;;11.77;6.73;;;5.80;99.90;;;;;;5014809;28;20192;-70
2021/11/25 10:10:30;;;;;;;10.70;8.43;;;5.90;99.90;;;;;;5015101;28;20403;-69
2021/11/25 10:13:12;;;;;;;15.10;8.57;;;6.30;99.90;;;;;;5014532;28;20172;-70
2021/11/25 10:15:39;;;;;;;12.10;8.50;;;6.20;99.90;;;;;;5014493;28;20474;-69
2021/11/25 10:18:06;;;;;;;16.00;8.87;;;6.10;99.90;;;;;;5014742;28;20426;-70
2021/11/25 10:20:39;;;;;;;12.50;8.00;;;6.20;99.90;;;;;;5014555;28;20411;-69
2021/11/25 10:23:05;;;;;;;14.57;7.43;;;5.90;99.90;;;;;;5014588;28;20530;-69
2021/11/25 10:25:55;;;;;;;11.40;8.77;;;5.90;99.90;;;;;;5014121;28;20459;-69
2021/11/25 10:28:31;;;;;;;15.63;9.03;;;5.80;99.90;;;;;;5021426;28;20274;-69
2021/11/25 10:31:07;;;;;;;12.53;7.73;;;5.70;99.90;;;;;;5034086;28;20405;-68
2021/11/25 10:34:00;;;;;;;14.20;7.33;;;5.80;99.90;;;;;;5034057;28;20417;-68
2021/11/25 10:39:08;;;;;;;13.67;9.93;;;5.70;99.90;;;;;;5033961;28;20402;-68
2021/11/25 10:41:36;;;;;;;14.43;8.10;;;5.90;99.90;;;;;;5033908;28;20468;-70
2021/11/25 10:44:25;;;;;;;12.60;7.70;;;6.20;99.90;;;;;;5033847;28;20403;-69
2021/11/25 10:46:55;;;;;;;9.20;6.67;;;5.80;99.90;;;;;;5028100;28;20460;-70
2021/11/25 10:49:41;;;;;;;11.80;6.37;;;5.90;99.90;;;;;;5033907;28;20467;-69
2021/11/25 10:52:14;;;;;;;16.37;8.60;;;6.00;99.90;;;;;;5033674;28;20412;-69
2021/11/25 10:54:58;;;;;;;11.17;6.97;;;5.80;99.90;;;;;;5033394;28;20414;-69
2021/11/25 10:57:35;;;;;;;13.83;7.67;;;5.80;99.90;;;;;;5033811;28;20417;-69
2021/11/25 11:00:07;;;;;;;5.83;5.23;;;5.70;99.90;;;;;;5033800;28;20403;-69
2021/11/25 11:02:33;;;;;;;12.17;6.60;;;5.80;99.90;;;;;;5018487;28;20450;-70
2021/11/25 11:05:10;;;;;;;12.67;6.90;;;5.60;99.90;;;;;;5013741;28;20431;-69
2021/11/25 11:07:38;;;;;;;8.10;6.27;;;5.80;99.90;;;;;;5014130;28;20934;-68
2021/11/25 11:10:26;;;;;;;11.87;7.37;;;6.00;99.90;;;;;;5013454;28;20761;-68
2021/11/25 11:21:32;;;;;;;10.67;6.23;;;5.70;99.90;;;;;;5033262;28;20402;-70
2021/11/25 11:24:02;;;;;;;17.33;8.77;;;5.60;99.90;;;;;;5033102;28;20418;-68
2021/11/25 11:26:28;;;;;;;14.83;8.60;;;5.70;99.90;;;;;;5033476;28;20480;-71
2021/11/25 11:28:53;;;;;;;14.00;6.87;;;5.60;99.90;;;;;;5033356;28;20403;-72
2021/11/25 11:31:19;;;;;;;11.43;8.40;;;5.90;99.90;;;;;;5033457;28;20406;-71
2021/11/25 11:33:47;;;;;;;12.60;7.63;;;5.90;99.90;;;;;;5033594;28;20251;-69
2021/11/25 11:36:13;;;;;;;11.60;6.70;;;5.80;99.90;;;;;;5032781;28;20504;-69
2021/11/25 11:38:40;;;;;;;9.53;7.50;;;5.70;99.90;;;;;;5032194;28;20425;-69
2021/11/25 11:41:06;;;;;;;10.47;8.73;;;5.70;99.90;;;;;;5025356;28;20898;-69
2021/11/25 11:43:32;;;;;;;12.50;9.20;;;5.50;99.90;;;;;;5012998;28;20441;-70
2021/11/25 11:45:58;;;;;;;21.27;7.97;;;5.70;99.90;;;;;;5012944;28;20473;-70
2021/11/25 11:48:25;;;;;;;14.20;7.97;;;6.00;99.90;;;;;;5012904;28;20406;-69
2021/11/25 11:50:54;;;;;;;9.63;6.93;;;5.90;99.90;;;;;;5012711;28;20482;-71
2021/11/25 11:53:22;;;;;;;18.13;10.73;;;6.10;99.90;;;;;;5029138;28;20449;-75
2021/11/25 11:55:59;;;;;;;18.73;10.30;;;6.00;99.90;;;;;;5031952;28;20519;-70
2021/11/25 11:58:38;;;;;;;20.00;10.83;;;5.90;99.90;;;;;;5032619;28;20829;-69
2021/11/25 12:01:12;;;;;;;10.53;8.50;;;5.80;99.90;;;;;;5029386;28;20407;-69
2021/11/25 12:03:54;;;;;;;13.90;7.60;;;5.90;99.90;;;;;;5012563;28;20414;-70
2021/11/25 12:06:33;;;;;;;13.73;8.47;;;6.00;99.90;;;;;;5012509;28;20821;-69
2021/11/25 12:09:01;;;;;;;16.73;7.10;;;5.80;99.90;;;;;;5012505;28;20411;-70
2021/11/25 12:11:42;;;;;;;10.00;7.10;;;5.60;99.90;;;;;;5012418;28;20478;-71
2021/11/25 12:14:23;;;;;;;13.90;7.97;;;5.70;99.90;;;;;;5012432;28;20407;-69
2021/11/25 12:17:07;;;;;;;10.93;8.73;;;5.60;99.90;;;;;;5012250;28;20450;-70
2021/11/25 12:19:37;;;;;;;10.47;7.67;;;5.70;99.90;;;;;;5012196;28;20420;-69
2021/11/25 12:22:14;;;;;;;13.97;7.40;;;5.70;99.90;;;;;;5012363;28;20408;-69
2021/11/25 12:24:51;;;;;;;10.57;7.20;;;6.10;99.90;;;;;;5011997;28;20820;-69
2021/11/25 12:27:36;;;;;;;13.43;8.60;;;5.90;99.90;;;;;;5031071;28;20429;-71
2021/11/25 12:30:10;;;;;;;12.60;7.77;;;5.80;99.90;;;;;;5031930;28;20407;-71
2021/11/25 12:32:48;;;;;;;11.13;8.60;;;5.40;99.90;;;;;;5031702;28;20800;-70
2021/11/25 12:37:42;;;;;;;15.43;8.00;;;5.70;99.90;;;;;;5032030;28;20403;-69
2021/11/25 12:40:27;;;;;;;10.80;8.00;;;5.40;99.90;;;;;;5024150;28;20411;-70
2021/11/25 12:42:55;;;;;;;11.57;7.57;;;5.80;99.90;;;;;;5012141;28;20176;-69
2021/11/25 12:45:23;;;;;;;14.50;8.27;;;5.80;99.90;;;;;;5011987;28;20430;-69
2021/11/25 12:48:16;;;;;;;11.83;6.53;;;5.80;99.90;;;;;;5012398;28;20399;-70
2021/11/25 12:50:50;;;;;;;10.07;7.70;;;5.80;99.90;;;;;;5012032;28;20403;-69
2021/11/25 12:53:23;;;;;;;16.13;8.03;;;5.80;99.90;;;;;;5012332;28;20906;-70
2021/11/25 12:56:16;;;;;;;11.87;7.93;;;5.80;99.90;;;;;;5025355;28;20466;-68
2021/11/25 12:59:02;;;;;;;11.60;8.40;;;5.80;99.90;;;;;;5024733;28;20426;-69
2021/11/25 13:01:38;;;;;;;13.43;10.37;;;5.70;99.90;;;;;;5031296;28;20398;-70
2021/11/25 13:04:16;;;;;;;17.33;9.13;;;5.80;99.90;;;;;;5030418;28;20403;-68
2021/11/25 13:06:48;;;;;;;8.97;7.10;;;5.70;99.90;;;;;;5031672;28;20437;-68
2021/11/25 13:09:17;;;;;;;13.03;9.07;;;5.70;99.90;;;;;;5031669;28;20472;-70
2021/11/25 13:11:45;;;;;;;14.23;9.03;;;5.90;99.90;;;;;;5031446;28;20964;-69
2021/11/25 13:14:18;;;;;;;20.47;8.73;;;5.90;99.90;;;;;;5031570;28;20971;-68
2021/11/25 13:16:59;;;;;;;13.00;8.60;;;6.10;99.90;;;;;;5030974;28;20466;-69
2021/11/25 13:19:30;;;;;;;11.70;7.87;;;5.80;99.90;;;;;;5023122;28;20438;-72